Terminal Aerodrome Forecast
Issued by NWS

Home | Current Version | Previous Version | Graphics & Text | Print | Product List | Glossary On
Versions: 1 2 3 4 5 6 7 8 9 10 11 12 13 14 15
000
FTUS43 KBIS 301125
TAFJMS
TAF
KJMS 301125Z 3012/0112 05006KT 5SM BR SCT060 BKN180
     FM301500 09007KT P6SM SCT080 BKN150
     FM301900 12008KT P6SM VCSH BKN050 OVC100
     FM010300 19004KT P6SM -SHRA VCTS BKN050 OVC070CB=

USA.gov is the U.S. government's official web portal to all federal, state and local government web resources and services.